Decatur, Tennessee
Current Conditions -  °F | °C
As of 8:35 PM on Thursday 27 Nov 2014 (Local Time) from KMMI Reporting Station
Broken Clouds Broken Clouds  
Wind Chill: -4°   Ceiling: 3400
Heat Index:   Visibility: 10mi
Dew Point: -7°   Wind: 7mph
Humidity: 60%   Direction: 330°NNW
Pressure: 30.42"   Gusts: NA
Location:  35.51°N, 84.79°W
Report Text: KMMI 280135Z AUTO 33006KT 10SM BKN034 00/M07 A3042 RMK
Loading
Personal Weather Stations






























Interactive Weather Map New forecast layout! Learn more

10-Day Weather Forecast

Advertisements
Track Severe Weather on mobile